Time;durP1;ratioP1;P1;durP2;ratioP2;P2;SDS_P1;SDS_P2;PMS_P1;PMS_P2;Temp;Humidity;BMP_temperature;BMP_pressure;BME280_temperature;BME280_humidity;BME280_pressure;Samples;Min_cycle;Max_cycle;Signal;HPM_P1;HPM_P2
2022/07/24 00:02:30;;;;;;;2.72;2.42;;;20.90;86.90;;;;;;10592199;27;20019;-66
2022/07/24 00:07:31;;;;;;;2.47;2.10;;;20.90;87.00;;;;;;10588056;27;20044;-66
2022/07/24 00:12:32;;;;;;;2.95;2.58;;;20.90;87.00;;;;;;10580776;27;20382;-65
2022/07/24 00:17:33;;;;;;;2.20;2.00;;;20.80;86.90;;;;;;10589648;27;20031;-66
2022/07/24 00:22:34;;;;;;;2.53;2.05;;;20.80;86.90;;;;;;10588082;27;20119;-65
2022/07/24 00:27:34;;;;;;;2.90;2.10;;;20.80;86.90;;;;;;10591118;27;20041;-66
2022/07/24 00:32:35;;;;;;;3.30;2.63;;;20.80;87.00;;;;;;10588722;27;20120;-66
2022/07/24 00:37:36;;;;;;;2.90;2.20;;;20.70;87.00;;;;;;10587144;27;20397;-66
2022/07/24 00:42:36;;;;;;;4.00;2.45;;;20.70;87.00;;;;;;10584560;27;20024;-66
2022/07/24 00:47:37;;;;;;;3.45;2.50;;;20.70;87.00;;;;;;10588610;27;20224;-66
2022/07/24 00:52:38;;;;;;;3.08;2.30;;;20.70;87.10;;;;;;10582764;27;20020;-66
2022/07/24 00:57:43;;;;;;;2.45;2.13;;;20.70;87.10;;;;;;10585611;28;20086;-65
2022/07/24 01:02:44;;;;;;;2.53;2.20;;;20.70;87.20;;;;;;10580376;27;20114;-66
2022/07/24 01:07:45;;;;;;;3.25;2.47;;;20.60;87.10;;;;;;10585026;27;20068;-66
2022/07/24 01:12:46;;;;;;;3.20;2.30;;;20.60;87.10;;;;;;10591583;28;20032;-66
2022/07/24 01:17:47;;;;;;;3.95;2.40;;;20.60;87.20;;;;;;10585877;28;20035;-66
2022/07/24 01:22:48;;;;;;;2.67;2.10;;;20.50;87.20;;;;;;10588360;28;20050;-65
2022/07/24 01:27:48;;;;;;;2.95;2.40;;;20.50;87.20;;;;;;10577805;27;20036;-66
2022/07/24 01:32:49;;;;;;;3.28;2.17;;;20.50;87.20;;;;;;10584341;28;20023;-66
2022/07/24 01:37:53;;;;;;;2.95;2.35;;;20.50;87.20;;;;;;10583698;28;20035;-66
2022/07/24 01:42:54;;;;;;;3.30;2.42;;;20.50;87.20;;;;;;10590302;28;20027;-65
2022/07/24 01:47:55;;;;;;;2.58;2.05;;;20.40;87.20;;;;;;10585634;28;20517;-66
2022/07/24 01:52:56;;;;;;;3.72;2.28;;;20.40;87.20;;;;;;10587255;28;20021;-66
2022/07/24 01:57:57;;;;;;;4.63;2.83;;;20.40;87.20;;;;;;10590558;27;20031;-66
2022/07/24 02:02:58;;;;;;;3.45;2.22;;;20.40;87.80;;;;;;10579539;28;20032;-65
2022/07/24 02:07:59;;;;;;;2.38;2.00;;;20.40;87.30;;;;;;10590266;27;20035;-66
2022/07/24 02:13:01;;;;;;;2.47;2.15;;;20.30;87.20;;;;;;10588038;27;20058;-66
2022/07/24 02:18:02;;;;;;;3.55;2.30;;;20.30;87.20;;;;;;10587953;27;20110;-66
2022/07/24 02:23:03;;;;;;;2.70;2.40;;;20.30;87.20;;;;;;10588554;27;20034;-66
2022/07/24 02:28:04;;;;;;;2.55;2.35;;;20.30;87.20;;;;;;10595272;27;20059;-66
2022/07/24 02:33:04;;;;;;;3.50;2.35;;;20.30;87.20;;;;;;10598442;27;20451;-65
2022/07/24 02:38:05;;;;;;;5.22;2.85;;;20.20;87.20;;;;;;10585890;27;20485;-65
2022/07/24 02:43:06;;;;;;;3.42;2.50;;;20.20;87.20;;;;;;10584872;27;20534;-65
2022/07/24 02:48:06;;;;;;;2.40;2.00;;;20.20;87.20;;;;;;10588240;27;20051;-65
2022/07/24 02:53:07;;;;;;;3.17;2.70;;;20.20;87.30;;;;;;10581141;27;20028;-66
2022/07/24 02:58:08;;;;;;;3.17;2.60;;;20.20;87.30;;;;;;10587633;27;20019;-66
2022/07/24 03:03:09;;;;;;;3.28;2.60;;;20.20;87.30;;;;;;10588011;27;20308;-65
2022/07/24 03:08:10;;;;;;;2.97;2.40;;;20.20;87.30;;;;;;10593753;27;20031;-66
2022/07/24 03:13:12;;;;;;;3.22;2.30;;;20.10;87.30;;;;;;10588259;27;20027;-66
2022/07/24 03:18:12;;;;;;;3.92;2.58;;;20.10;87.30;;;;;;10588071;27;20028;-66
2022/07/24 03:23:13;;;;;;;3.33;2.50;;;20.10;87.30;;;;;;10589703;27;20095;-66
2022/07/24 03:28:14;;;;;;;3.25;2.30;;;20.10;87.30;;;;;;10593759;27;20412;-65
2022/07/24 03:33:14;;;;;;;3.30;2.65;;;20.00;87.30;;;;;;10586914;27;20024;-66
2022/07/24 03:38:15;;;;;;;3.35;2.40;;;20.00;87.30;;;;;;10595404;27;20055;-66
2022/07/24 03:43:16;;;;;;;3.72;2.42;;;20.00;87.30;;;;;;10597645;27;20027;-66
2022/07/24 03:48:16;;;;;;;3.00;2.33;;;20.00;87.30;;;;;;10589708;27;20050;-66
2022/07/24 03:53:17;;;;;;;3.97;2.45;;;20.00;87.30;;;;;;10592184;27;20051;-67
2022/07/24 03:58:18;;;;;;;3.97;2.80;;;20.00;87.30;;;;;;10587754;27;20032;-66
2022/07/24 04:03:18;;;;;;;2.83;2.17;;;20.00;87.30;;;;;;10584155;27;20027;-66
2022/07/24 04:08:19;;;;;;;3.58;2.60;;;20.00;87.40;;;;;;10548330;27;20039;-66
2022/07/24 04:13:20;;;;;;;3.70;2.42;;;20.00;87.40;;;;;;10569720;27;20452;-66
2022/07/24 04:18:21;;;;;;;4.50;2.65;;;19.90;87.30;;;;;;10545658;27;20034;-66
2022/07/24 04:23:22;;;;;;;3.55;2.83;;;19.90;87.40;;;;;;10504267;27;20023;-66
2022/07/24 04:28:22;;;;;;;3.15;2.65;;;19.90;87.40;;;;;;10504741;27;20042;-67
2022/07/24 04:33:23;;;;;;;3.80;2.50;;;19.90;87.40;;;;;;10508623;27;20823;-66
2022/07/24 04:38:24;;;;;;;3.70;3.13;;;19.90;87.40;;;;;;10507138;27;20366;-67
2022/07/24 04:43:24;;;;;;;3.13;2.33;;;19.90;87.40;;;;;;10505306;27;20891;-67
2022/07/24 04:48:25;;;;;;;3.28;2.70;;;19.90;87.50;;;;;;10514047;27;20481;-66
2022/07/24 04:53:26;;;;;;;3.50;2.53;;;19.90;87.50;;;;;;10503201;27;20032;-66
2022/07/24 04:58:27;;;;;;;4.15;2.83;;;19.90;87.50;;;;;;10509679;27;20028;-66
2022/07/24 05:03:28;;;;;;;3.85;3.13;;;19.80;87.40;;;;;;10509184;28;20034;-66
2022/07/24 05:08:28;;;;;;;4.43;2.70;;;19.80;87.50;;;;;;10508791;28;20154;-66
2022/07/24 05:13:29;;;;;;;3.30;2.97;;;19.80;87.50;;;;;;10518573;28;20027;-66
2022/07/24 05:18:30;;;;;;;4.07;3.17;;;19.80;87.50;;;;;;10515729;28;20031;-67
2022/07/24 05:23:31;;;;;;;4.72;3.00;;;19.80;87.50;;;;;;10513484;28;20058;-66
2022/07/24 05:28:32;;;;;;;3.67;2.75;;;19.80;87.50;;;;;;10508339;28;20039;-66
2022/07/24 05:33:33;;;;;;;4.50;2.95;;;19.80;87.50;;;;;;10505701;27;20565;-67
2022/07/24 05:38:34;;;;;;;4.13;2.60;;;19.80;87.50;;;;;;10512685;27;20282;-67
2022/07/24 05:43:35;;;;;;;4.50;3.08;;;19.80;87.50;;;;;;10517208;27;20027;-66
2022/07/24 05:48:36;;;;;;;4.20;2.88;;;19.80;87.50;;;;;;10515020;27;20145;-66
2022/07/24 05:53:37;;;;;;;5.20;3.22;;;19.90;87.60;;;;;;10532447;27;20129;-66
2022/07/24 05:58:37;;;;;;;4.57;3.38;;;19.80;87.50;;;;;;10514122;27;20189;-66
2022/07/24 06:03:38;;;;;;;3.90;2.85;;;19.90;87.70;;;;;;10519219;27;20034;-65
2022/07/24 06:08:39;;;;;;;3.35;2.67;;;19.90;87.60;;;;;;10518879;27;20036;-66
2022/07/24 06:13:40;;;;;;;3.65;2.90;;;19.90;87.60;;;;;;10520079;27;20031;-66
2022/07/24 06:18:41;;;;;;;4.25;3.55;;;19.90;87.60;;;;;;10513752;27;20457;-66
2022/07/24 06:23:42;;;;;;;5.15;3.20;;;19.90;87.70;;;;;;10516693;27;20023;-66
2022/07/24 06:28:43;;;;;;;5.25;3.08;;;19.90;87.70;;;;;;10512371;27;20468;-67
2022/07/24 06:55:07;;;;;;;4.00;3.00;;;20.00;87.70;;;;;;10993994;22;20522;-65
2022/07/24 07:00:09;;;;;;;3.92;3.20;;;20.00;87.40;;;;;;10478308;28;20549;-66
2022/07/24 07:05:10;;;;;;;5.35;3.42;;;20.00;87.30;;;;;;10467148;28;20032;-65
2022/07/24 07:10:11;;;;;;;4.25;3.22;;;20.50;87.60;;;;;;10468874;28;20051;-66
2022/07/24 07:15:11;;;;;;;6.03;3.08;;;20.10;87.30;;;;;;10471077;28;20380;-66
2022/07/24 07:20:12;;;;;;;3.92;3.17;;;20.10;87.30;;;;;;10470673;28;20066;-66
2022/07/24 07:25:13;;;;;;;4.57;3.70;;;20.10;87.30;;;;;;10470482;28;20056;-66
2022/07/24 07:30:14;;;;;;;4.82;3.72;;;19.90;87.20;;;;;;10461941;28;20650;-67
2022/07/24 07:35:15;;;;;;;5.43;3.75;;;20.20;87.90;;;;;;10451577;28;20567;-66
2022/07/24 07:40:15;;;;;;;5.15;3.45;;;20.20;87.30;;;;;;10467403;28;20424;-66
2022/07/24 07:45:16;;;;;;;4.22;3.05;;;20.20;87.30;;;;;;10469581;28;20599;-66
2022/07/24 07:50:17;;;;;;;4.53;3.28;;;20.30;87.30;;;;;;10461961;28;20112;-66
2022/07/24 07:55:18;;;;;;;4.25;3.40;;;20.40;87.20;;;;;;10466847;28;20059;-66
2022/07/24 08:00:19;;;;;;;3.25;2.72;;;20.40;87.10;;;;;;10430940;28;20122;-65
2022/07/24 08:05:20;;;;;;;4.47;3.33;;;20.50;87.00;;;;;;10474554;28;20070;-66
2022/07/24 08:10:21;;;;;;;3.90;3.00;;;20.60;87.00;;;;;;10466873;28;20066;-63
2022/07/24 08:15:21;;;;;;;4.90;3.20;;;20.60;86.80;;;;;;10464580;28;20062;-67
2022/07/24 08:20:24;;;;;;;5.55;2.72;;;20.70;86.90;;;;;;10464844;28;20363;-68
2022/07/24 08:25:25;;;;;;;4.22;3.00;;;20.70;87.00;;;;;;10471204;28;20982;-67
2022/07/24 08:30:26;;;;;;;3.20;2.70;;;20.80;87.00;;;;;;10470917;28;20307;-66
2022/07/24 08:35:27;;;;;;;7.47;3.35;;;20.80;87.10;;;;;;10472335;28;20030;-64
2022/07/24 08:40:39;;;;;;;4.10;3.20;;;20.80;87.10;;;;;;10465823;28;20151;-65
2022/07/24 08:45:42;;;;;;;5.57;2.95;;;20.90;87.20;;;;;;10465845;28;20447;-64
2022/07/24 08:50:43;;;;;;;4.47;2.83;;;20.80;87.10;;;;;;10475603;28;20319;-65
2022/07/24 08:55:44;;;;;;;2.88;2.58;;;20.90;87.10;;;;;;10462946;28;20048;-65
2022/07/24 09:00:45;;;;;;;6.57;2.90;;;21.00;87.10;;;;;;10461564;28;20062;-65
2022/07/24 09:05:56;;;;;;;3.67;2.60;;;21.00;87.10;;;;;;10471782;28;20124;-65
2022/07/24 09:10:59;;;;;;;3.33;2.60;;;21.10;87.10;;;;;;10468567;28;20502;-66
2022/07/24 09:16:00;;;;;;;3.88;2.40;;;21.20;87.00;;;;;;10475006;28;20382;-64
2022/07/24 09:21:15;;;;;;;2.90;2.40;;;21.20;86.80;;;;;;10483158;28;20259;-65
2022/07/24 09:26:16;;;;;;;3.70;2.55;;;21.30;86.80;;;;;;10482570;28;20040;-65
2022/07/24 09:31:16;;;;;;;4.20;2.60;;;21.40;86.60;;;;;;10484316;28;20335;-64
2022/07/24 09:36:18;;;;;;;3.83;2.28;;;21.40;86.50;;;;;;10474661;28;20115;-65
2022/07/24 10:09:21;;;;;;;3.90;2.55;;;22.80;85.30;;;;;;12011405;23;20055;-65
2022/07/24 10:14:23;;;;;;;2.30;2.00;;;22.90;84.40;;;;;;10567604;27;20779;-65
2022/07/24 10:19:28;;;;;;;3.33;2.42;;;23.00;83.80;;;;;;10567167;27;20297;-65
2022/07/24 10:25:05;;;;;;;4.80;3.15;;;23.20;83.30;;;;;;10565903;27;20409;-65
2022/07/24 10:30:08;;;;;;;2.70;2.33;;;23.20;83.30;;;;;;10551369;27;20799;-65
2022/07/24 10:35:17;;;;;;;5.53;2.35;;;23.50;83.50;;;;;;10560621;27;20095;-65
2022/07/24 10:45:19;;;;;;;3.07;2.50;;;23.60;83.00;;;;;;11547756;22;20055;-68
2022/07/24 10:50:19;;;;;;;3.20;2.50;;;23.60;82.90;;;;;;10479793;28;20059;-65
2022/07/24 10:55:34;;;;;;;2.67;2.30;;;23.70;82.50;;;;;;10474508;28;20185;-66
2022/07/24 11:00:38;;;;;;;4.85;2.40;;;23.80;81.90;;;;;;10470558;28;20573;-64
2022/07/24 11:05:39;;;;;;;3.47;2.40;;;23.90;82.00;;;;;;10479043;28;20067;-65
2022/07/24 11:10:54;;;;;;;5.18;2.70;;;24.00;81.60;;;;;;10476231;28;20031;-65
2022/07/24 11:16:10;;;;;;;4.22;2.88;;;24.00;80.90;;;;;;10480279;28;20503;-65
2022/07/24 11:21:10;;;;;;;3.65;3.15;;;24.10;80.80;;;;;;10469752;28;20027;-65
2022/07/24 11:26:30;;;;;;;3.38;2.88;;;24.10;81.00;;;;;;10474918;28;20489;-63
2022/07/24 11:31:32;;;;;;;5.70;2.92;;;24.40;80.50;;;;;;10466514;28;20458;-65
2022/07/24 11:36:34;;;;;;;3.78;2.90;;;24.20;80.40;;;;;;10479874;28;20252;-64
2022/07/24 11:41:53;;;;;;;4.78;2.78;;;24.30;79.70;;;;;;10472528;28;20031;-64
2022/07/24 11:46:56;;;;;;;3.03;2.60;;;24.50;78.80;;;;;;10478200;28;20044;-63
2022/07/24 11:51:57;;;;;;;3.00;2.40;;;24.60;79.00;;;;;;10454905;28;20068;-64
2022/07/24 11:56:58;;;;;;;2.92;2.40;;;24.80;78.80;;;;;;10474021;28;20031;-65
2022/07/24 12:02:07;;;;;;;3.20;2.70;;;25.00;78.40;;;;;;10476199;28;20630;-66
2022/07/24 12:07:17;;;;;;;4.43;2.58;;;25.10;77.60;;;;;;10449496;28;20044;-64
2022/07/24 12:12:24;;;;;;;5.00;2.42;;;25.20;77.50;;;;;;10472190;28;20719;-62
2022/07/24 12:17:24;;;;;;;3.87;2.57;;;25.30;77.30;;;;;;10467674;28;20160;-63
2022/07/24 12:22:27;;;;;;;3.95;2.50;;;25.40;77.40;;;;;;10463784;28;20727;-63
2022/07/24 12:27:42;;;;;;;5.85;2.75;;;25.50;77.00;;;;;;10468601;28;20477;-63
2022/07/24 12:32:54;;;;;;;3.50;2.80;;;25.50;75.50;;;;;;10462870;28;20146;-64
2022/07/24 12:37:56;;;;;;;5.90;2.92;;;25.70;76.10;;;;;;10464132;28;20040;-68
2022/07/24 12:43:12;;;;;;;3.78;2.90;;;25.80;76.40;;;;;;10478854;28;20074;-64
2022/07/24 12:48:21;;;;;;;3.40;2.72;;;25.80;75.00;;;;;;10465851;28;20083;-64
2022/07/24 12:53:22;;;;;;;5.05;2.70;;;25.90;74.60;;;;;;10478016;28;20283;-63
2022/07/24 12:58:22;;;;;;;3.20;2.72;;;26.00;74.90;;;;;;10468926;28;20353;-66
2022/07/24 13:03:26;;;;;;;4.10;2.53;;;26.10;74.60;;;;;;10463213;28;20481;-64
2022/07/24 13:08:27;;;;;;;4.70;2.80;;;26.20;74.20;;;;;;10467125;28;20071;-64
2022/07/24 13:13:28;;;;;;;3.20;2.60;;;26.30;74.00;;;;;;10470331;28;20494;-71
2022/07/24 13:18:28;;;;;;;3.80;2.65;;;26.50;73.90;;;;;;10459448;28;20036;-73
2022/07/24 13:23:29;;;;;;;3.90;2.28;;;26.60;73.40;;;;;;10472475;28;20576;-65
2022/07/24 13:28:32;;;;;;;3.05;2.28;;;26.70;73.00;;;;;;10464468;28;20047;-65
2022/07/24 13:33:33;;;;;;;3.08;2.55;;;26.90;72.90;;;;;;10462157;28;20118;-65
2022/07/24 13:38:34;;;;;;;3.60;2.58;;;27.10;72.50;;;;;;10464298;28;20561;-66
2022/07/24 13:43:34;;;;;;;3.38;2.70;;;27.20;72.20;;;;;;10462267;28;20148;-65
2022/07/24 13:48:35;;;;;;;4.25;2.60;;;27.40;72.30;;;;;;10471350;28;20116;-65
2022/07/24 13:53:36;;;;;;;4.35;2.45;;;27.50;72.10;;;;;;10465285;28;20028;-65
2022/07/24 13:58:37;;;;;;;4.30;2.50;;;27.70;72.10;;;;;;10457959;28;20031;-65
2022/07/24 14:03:41;;;;;;;3.83;2.70;;;27.80;72.10;;;;;;10470787;28;20611;-65
2022/07/24 14:08:42;;;;;;;3.15;2.22;;;27.90;71.90;;;;;;10475616;28;20501;-65
2022/07/24 14:13:43;;;;;;;3.17;2.35;;;28.10;71.40;;;;;;10472475;28;20059;-65
2022/07/24 14:18:43;;;;;;;4.63;2.72;;;28.20;71.20;;;;;;10471326;28;20036;-65
2022/07/24 14:23:44;;;;;;;4.05;2.55;;;28.30;71.00;;;;;;10470649;28;20035;-65
2022/07/24 14:28:45;;;;;;;3.47;2.70;;;28.40;70.40;;;;;;10473047;28;20671;-65
2022/07/24 14:33:45;;;;;;;2.85;2.33;;;28.50;70.70;;;;;;10463648;28;20032;-65
2022/07/24 14:38:46;;;;;;;4.00;2.97;;;28.70;70.70;;;;;;10472081;28;20028;-63
2022/07/24 14:43:47;;;;;;;5.35;2.70;;;28.80;70.50;;;;;;10477636;28;20044;-74
2022/07/24 14:48:48;;;;;;;3.75;2.70;;;28.80;70.20;;;;;;10484963;28;20069;-65
2022/07/24 14:53:48;;;;;;;2.65;2.33;;;28.90;70.20;;;;;;10482478;28;20058;-65
2022/07/24 14:58:49;;;;;;;3.00;2.28;;;28.90;70.10;;;;;;10472052;28;20603;-66
2022/07/24 15:03:50;;;;;;;3.65;2.72;;;29.00;70.10;;;;;;10474160;28;20378;-65
2022/07/24 15:08:50;;;;;;;3.85;2.58;;;29.10;70.80;;;;;;10478230;28;20079;-65
2022/07/24 15:13:52;;;;;;;3.53;2.58;;;29.10;70.60;;;;;;10475906;28;20023;-65
2022/07/24 15:18:53;;;;;;;4.05;2.63;;;29.20;70.50;;;;;;10481656;28;20300;-65
2022/07/24 15:23:53;;;;;;;3.15;2.72;;;29.30;70.30;;;;;;10482337;28;20035;-66
2022/07/24 15:28:54;;;;;;;4.57;2.50;;;29.30;70.10;;;;;;10481105;28;20494;-67
2022/07/24 15:33:55;;;;;;;3.70;2.63;;;29.30;69.80;;;;;;10480146;28;20407;-67
2022/07/24 15:38:55;;;;;;;3.60;2.30;;;29.30;69.80;;;;;;10469610;28;20531;-65
2022/07/24 15:43:56;;;;;;;2.75;2.20;;;29.30;69.50;;;;;;10470334;28;20139;-65
2022/07/24 15:48:57;;;;;;;3.80;2.30;;;29.30;69.50;;;;;;10477712;28;20165;-65
2022/07/24 15:53:58;;;;;;;2.78;2.40;;;29.30;70.10;;;;;;10484030;28;20035;-65
2022/07/24 15:58:59;;;;;;;3.05;2.00;;;29.30;70.10;;;;;;10477727;28;20873;-65
2022/07/24 16:04:00;;;;;;;2.40;2.10;;;29.20;70.30;;;;;;10487699;28;20051;-66
2022/07/24 16:09:01;;;;;;;2.30;2.05;;;29.20;70.50;;;;;;10470025;28;20043;-63
2022/07/24 16:14:01;;;;;;;3.40;2.08;;;28.90;71.10;;;;;;10471039;28;20100;-63
2022/07/24 16:19:03;;;;;;;3.60;2.47;;;28.80;71.40;;;;;;10469647;28;20108;-63
2022/07/24 16:24:04;;;;;;;5.70;2.20;;;28.60;71.40;;;;;;10474356;28;20043;-62
2022/07/24 16:29:05;;;;;;;4.97;2.40;;;28.50;71.70;;;;;;10448243;28;20390;-66
2022/07/24 16:34:05;;;;;;;3.60;1.95;;;28.40;72.00;;;;;;10462256;28;20045;-64
2022/07/24 16:49:40;;;;;;;3.17;2.20;;;28.20;72.50;;;;;;11511434;22;20051;-64
2022/07/24 16:54:41;;;;;;;3.25;2.28;;;28.10;72.80;;;;;;10554909;27;20038;-64
2022/07/24 16:59:42;;;;;;;2.60;2.15;;;28.00;73.00;;;;;;10549618;27;20390;-65
2022/07/24 17:04:43;;;;;;;2.38;2.05;;;27.90;73.10;;;;;;10553452;27;20023;-69
2022/07/24 17:09:44;;;;;;;3.88;2.50;;;27.80;73.20;;;;;;10555599;27;20265;-66
2022/07/24 17:14:45;;;;;;;2.45;1.90;;;27.80;73.40;;;;;;10553887;27;20475;-67
2022/07/24 17:19:46;;;;;;;3.10;2.08;;;27.70;73.30;;;;;;10553497;27;20663;-65
2022/07/24 17:24:49;;;;;;;2.28;2.08;;;27.70;73.40;;;;;;10541772;27;20387;-70
2022/07/24 17:29:50;;;;;;;2.30;2.10;;;27.60;73.50;;;;;;10551860;27;20045;-67
2022/07/24 17:34:50;;;;;;;3.50;2.35;;;27.60;73.80;;;;;;10553086;27;20713;-64
2022/07/24 17:39:52;;;;;;;2.63;1.95;;;27.50;73.90;;;;;;10551473;27;20027;-65
2022/07/24 17:44:53;;;;;;;2.58;2.13;;;27.40;74.30;;;;;;10564194;27;20054;-64
2022/07/24 17:49:53;;;;;;;3.08;2.05;;;27.40;74.30;;;;;;10565837;27;20483;-64
2022/07/24 17:54:54;;;;;;;2.40;2.20;;;27.40;74.40;;;;;;10556785;27;20038;-70
2022/07/24 17:59:55;;;;;;;2.70;2.28;;;27.30;74.50;;;;;;10566437;27;20057;-70
2022/07/24 18:04:56;;;;;;;5.07;1.95;;;27.30;74.90;;;;;;10570138;27;20197;-65
2022/07/24 18:09:57;;;;;;;2.85;2.33;;;27.20;74.80;;;;;;10566798;27;20035;-68
2022/07/24 18:14:57;;;;;;;2.95;2.45;;;27.20;75.30;;;;;;10568580;27;20479;-64
2022/07/24 18:19:58;;;;;;;2.28;2.08;;;27.10;75.60;;;;;;10570897;27;20019;-68
2022/07/24 18:24:59;;;;;;;2.85;2.15;;;27.10;76.00;;;;;;10564958;27;20050;-65
2022/07/24 18:29:59;;;;;;;2.58;2.10;;;27.00;76.20;;;;;;10568501;27;20034;-67
2022/07/24 18:35:00;;;;;;;3.28;2.05;;;27.00;76.50;;;;;;10568309;27;20019;-64
2022/07/24 18:40:01;;;;;;;2.45;2.25;;;26.90;77.20;;;;;;10562169;27;20034;-64
2022/07/24 18:45:02;;;;;;;2.10;1.88;;;26.90;77.70;;;;;;10558691;27;20035;-64
2022/07/24 18:50:05;;;;;;;2.30;1.80;;;26.70;78.10;;;;;;10569234;27;20656;-67
2022/07/24 18:55:06;;;;;;;3.30;2.28;;;26.90;79.00;;;;;;10562624;27;20157;-67
2022/07/24 19:00:10;;;;;;;3.10;2.00;;;26.50;79.60;;;;;;10556288;27;20046;-66
2022/07/24 19:05:11;;;;;;;4.25;2.55;;;26.40;80.30;;;;;;10543469;27;20414;-66
2022/07/24 19:10:12;;;;;;;4.85;2.50;;;26.30;81.20;;;;;;10561516;27;20110;-67
2022/07/24 19:15:13;;;;;;;3.30;2.20;;;26.20;81.70;;;;;;10559227;27;20030;-66
2022/07/24 19:20:13;;;;;;;4.25;2.42;;;26.10;82.20;;;;;;10549564;27;20018;-67
2022/07/24 19:25:14;;;;;;;4.20;2.42;;;26.10;82.70;;;;;;10554158;27;20154;-66
2022/07/24 19:30:15;;;;;;;4.57;2.50;;;26.00;83.10;;;;;;10537256;27;20984;-67
2022/07/24 19:35:16;;;;;;;3.05;1.98;;;26.00;83.20;;;;;;10554833;27;20023;-67
2022/07/24 19:40:17;;;;;;;3.22;2.35;;;26.00;83.00;;;;;;10543509;27;20914;-67
2022/07/24 19:45:18;;;;;;;3.25;2.20;;;26.10;82.90;;;;;;10548059;27;20127;-67
2022/07/24 19:50:19;;;;;;;2.97;2.15;;;26.10;82.80;;;;;;10519007;27;20648;-66
2022/07/24 19:55:19;;;;;;;3.10;2.30;;;26.10;82.70;;;;;;10540424;27;20049;-67
2022/07/24 20:00:20;;;;;;;2.00;1.80;;;26.00;82.60;;;;;;10525019;27;20473;-67
2022/07/24 20:05:21;;;;;;;2.58;2.10;;;26.00;82.60;;;;;;10532163;27;20143;-68
2022/07/24 20:10:22;;;;;;;2.72;2.20;;;26.00;82.60;;;;;;10537866;27;20050;-67
2022/07/24 20:15:22;;;;;;;3.03;2.20;;;26.00;82.60;;;;;;10628285;27;20022;-66
2022/07/24 20:20:23;;;;;;;2.47;2.00;;;26.00;82.60;;;;;;10627305;27;20046;-67
2022/07/24 20:25:24;;;;;;;3.03;2.45;;;25.90;82.60;;;;;;10627883;27;20040;-66
2022/07/24 20:30:25;;;;;;;2.03;1.60;;;25.90;82.60;;;;;;10629537;27;20525;-67
2022/07/24 20:35:26;;;;;;;2.38;2.17;;;25.90;82.60;;;;;;10623216;27;20087;-66
2022/07/24 20:40:27;;;;;;;1.75;1.60;;;25.80;82.60;;;;;;10620808;27;20041;-66
2022/07/24 20:45:27;;;;;;;2.33;2.00;;;25.80;82.70;;;;;;10627550;27;20039;-66
2022/07/24 20:50:28;;;;;;;1.95;1.73;;;25.70;82.60;;;;;;10617858;27;20053;-67
2022/07/24 20:55:29;;;;;;;4.18;2.00;;;25.70;82.70;;;;;;10631500;27;20022;-66
2022/07/24 21:00:30;;;;;;;2.88;1.80;;;25.70;82.80;;;;;;10631536;27;20481;-66
2022/07/24 21:05:31;;;;;;;2.55;2.10;;;25.60;82.70;;;;;;10625128;27;20051;-66
2022/07/24 21:10:31;;;;;;;2.55;2.00;;;25.60;82.80;;;;;;10625781;27;20019;-66
2022/07/24 21:15:32;;;;;;;3.53;2.03;;;25.50;82.80;;;;;;10625603;27;20027;-65
2022/07/24 21:20:33;;;;;;;2.15;1.95;;;25.50;82.80;;;;;;10625911;27;20023;-65
2022/07/24 21:25:34;;;;;;;2.78;2.03;;;25.50;82.90;;;;;;10636427;27;20030;-67
2022/07/24 21:30:35;;;;;;;2.80;2.13;;;25.50;83.00;;;;;;10633687;27;20025;-65
2022/07/24 21:35:36;;;;;;;3.25;2.13;;;25.40;83.00;;;;;;10643040;27;20035;-65
2022/07/24 21:40:37;;;;;;;3.33;2.35;;;25.40;83.00;;;;;;10637598;27;21029;-65
2022/07/24 21:45:38;;;;;;;2.05;1.85;;;25.30;82.90;;;;;;10631034;27;20039;-65
2022/07/24 21:50:39;;;;;;;2.35;1.63;;;25.30;82.90;;;;;;10631439;27;20456;-65
2022/07/24 21:55:39;;;;;;;2.10;1.83;;;25.30;82.90;;;;;;10635854;27;20487;-65
2022/07/24 22:00:43;;;;;;;2.45;1.80;;;25.30;83.00;;;;;;10632678;27;20126;-65
2022/07/24 22:05:45;;;;;;;3.10;2.00;;;25.20;83.00;;;;;;10638696;27;20920;-65
2022/07/24 22:10:45;;;;;;;2.42;2.10;;;25.20;83.00;;;;;;10634867;27;20027;-65
2022/07/24 22:15:46;;;;;;;2.20;1.88;;;25.20;83.00;;;;;;10639232;27;20544;-64
2022/07/24 22:20:47;;;;;;;2.85;1.92;;;25.20;83.00;;;;;;10638492;27;20395;-66
2022/07/24 22:25:48;;;;;;;2.13;1.92;;;25.20;83.00;;;;;;10625741;27;20047;-65
2022/07/24 22:30:49;;;;;;;1.70;1.60;;;25.10;83.00;;;;;;10633081;27;20023;-65
2022/07/24 22:35:51;;;;;;;3.92;2.40;;;25.10;83.00;;;;;;10629058;27;20046;-66
2022/07/24 22:40:51;;;;;;;2.97;2.15;;;25.10;83.00;;;;;;10625248;27;20022;-66
2022/07/24 22:45:54;;;;;;;6.15;2.20;;;25.00;83.00;;;;;;10624591;27;20058;-64
2022/07/24 22:50:56;;;;;;;2.38;2.10;;;25.00;83.00;;;;;;10631163;27;20102;-66
2022/07/24 22:55:59;;;;;;;2.20;1.80;;;25.00;83.10;;;;;;10631129;27;20443;-65
2022/07/24 23:00:59;;;;;;;2.55;2.08;;;25.00;83.10;;;;;;10631203;27;20019;-64
2022/07/24 23:06:00;;;;;;;2.80;2.05;;;25.00;83.10;;;;;;10632010;27;20223;-65
2022/07/24 23:11:01;;;;;;;2.13;1.73;;;24.90;83.10;;;;;;10630344;27;20048;-65
2022/07/24 23:16:01;;;;;;;2.10;1.90;;;24.90;83.20;;;;;;10631060;27;20532;-65
2022/07/24 23:21:02;;;;;;;2.65;2.22;;;24.80;83.10;;;;;;10631109;27;20027;-65
2022/07/24 23:26:03;;;;;;;2.45;2.00;;;24.80;83.20;;;;;;10632553;27;20038;-65
2022/07/24 23:31:04;;;;;;;2.40;2.20;;;24.80;83.20;;;;;;10626950;27;20035;-65
2022/07/24 23:36:05;;;;;;;2.30;2.08;;;24.80;83.20;;;;;;10627368;27;20500;-65
2022/07/24 23:41:06;;;;;;;2.22;1.92;;;24.80;83.20;;;;;;10623558;27;20015;-64
2022/07/24 23:46:06;;;;;;;2.75;2.03;;;24.70;83.20;;;;;;10627682;27;20027;-64
2022/07/24 23:51:07;;;;;;;2.22;1.90;;;24.70;83.20;;;;;;10625301;27;20057;-64
2022/07/24 23:56:08;;;;;;;2.83;2.22;;;24.70;83.30;;;;;;10624598;27;20034;-65
